createdAt,value
2017-06-15T00:02:03.147Z,18.6
2017-06-15T00:07:02.899Z,18.6
2017-06-15T00:12:02.890Z,18.4
2017-06-15T00:17:03.211Z,18.3
2017-06-15T00:22:03.126Z,18.3
2017-06-15T00:27:03.222Z,18.3
2017-06-15T00:32:03.688Z,18.2
2017-06-15T00:37:03.497Z,18.1
2017-06-15T00:42:02.805Z,18.1
2017-06-15T00:47:02.793Z,18.1
2017-06-15T00:52:02.986Z,18.1
2017-06-15T00:57:03.213Z,18.0
2017-06-15T01:02:03.489Z,17.9
2017-06-15T01:07:03.029Z,17.9
2017-06-15T01:12:03.268Z,17.8
2017-06-15T01:17:03.559Z,17.7
2017-06-15T01:22:03.353Z,17.7
2017-06-15T01:27:03.366Z,17.6
2017-06-15T01:32:03.673Z,17.4
2017-06-15T01:37:03.148Z,17.4
2017-06-15T01:42:03.223Z,17.2
2017-06-15T01:47:02.794Z,17.2
2017-06-15T01:52:03.114Z,17.1
2017-06-15T01:57:03.226Z,17.1
2017-06-15T02:02:03.476Z,17.1
2017-06-15T02:07:02.913Z,17.0
2017-06-15T02:12:03.131Z,17.0
2017-06-15T02:17:03.396Z,16.9
2017-06-15T02:22:03.594Z,16.9
2017-06-15T02:27:02.940Z,16.9
2017-06-15T02:32:07.147Z,16.8
2017-06-15T02:37:03.670Z,16.8
2017-06-15T02:42:03.020Z,16.7
2017-06-15T02:47:14.205Z,16.6
2017-06-15T02:52:02.884Z,16.5
2017-06-15T02:57:03.413Z,16.5
2017-06-15T03:02:13.064Z,16.5
2017-06-15T03:07:03.219Z,16.4
2017-06-15T03:12:03.556Z,16.3
2017-06-15T03:17:17.883Z,16.3
2017-06-15T03:22:03.327Z,16.2
2017-06-15T03:27:02.949Z,16.2
2017-06-15T03:32:13.849Z,16.2
2017-06-15T03:37:03.637Z,16.1
2017-06-15T03:42:02.903Z,16.2
2017-06-15T03:47:13.720Z,16.2
2017-06-15T03:52:02.709Z,16.3
2017-06-15T03:57:03.203Z,16.4
2017-06-15T04:02:13.955Z,16.4
2017-06-15T04:07:03.001Z,16.5
2017-06-15T04:12:03.515Z,16.4
2017-06-15T04:17:13.439Z,16.6
2017-06-15T04:22:03.426Z,16.6
2017-06-15T04:27:03.075Z,17.0
2017-06-15T04:32:13.635Z,17.4
2017-06-15T04:37:02.946Z,17.3
2017-06-15T04:42:03.325Z,17.8
2017-06-15T04:47:18.222Z,17.8
2017-06-15T04:52:03.431Z,18.0
2017-06-15T04:57:02.984Z,18.5
2017-06-15T05:07:03.096Z,18.9
2017-06-15T05:12:03.580Z,19.0
2017-06-15T05:17:22.636Z,19.2
2017-06-15T05:22:02.816Z,19.2
2017-06-15T05:27:03.314Z,19.5
2017-06-15T05:32:17.234Z,19.8
2017-06-15T05:37:03.342Z,20.0
2017-06-15T05:42:03.580Z,20.4
2017-06-15T05:47:13.227Z,20.7
2017-06-15T05:52:03.094Z,21.0
2017-06-15T05:57:03.449Z,20.9
2017-06-15T06:02:13.470Z,21.3
2017-06-15T06:07:03.140Z,21.7
2017-06-15T06:12:03.653Z,21.7
2017-06-15T06:17:17.915Z,22.0
2017-06-15T06:22:03.029Z,22.3
2017-06-15T06:27:03.416Z,22.6
2017-06-15T06:32:13.416Z,23.0
2017-06-15T06:37:02.685Z,23.4
2017-06-15T06:42:03.174Z,23.6
2017-06-15T06:47:13.956Z,24.3
2017-06-15T06:52:03.137Z,24.6
2017-06-15T06:57:02.982Z,24.5
2017-06-15T07:02:23.128Z,24.9
2017-06-15T07:07:03.079Z,25.4
2017-06-15T07:12:03.546Z,25.4
2017-06-15T07:17:17.768Z,26.0
2017-06-15T07:22:03.625Z,26.3
2017-06-15T07:27:03.358Z,26.3
2017-06-15T07:32:17.318Z,26.9
2017-06-15T07:37:03.584Z,26.9
2017-06-15T07:42:03.066Z,27.3
2017-06-15T07:47:18.051Z,27.5
2017-06-15T07:52:03.299Z,27.4
2017-06-15T07:57:10.121Z,27.7
2017-06-15T08:02:03.362Z,28.2
2017-06-15T08:07:02.978Z,28.2
2017-06-15T08:12:03.578Z,28.5
2017-06-15T08:17:06.482Z,28.8
2017-06-15T08:22:14.778Z,29.2
2017-06-15T08:27:03.447Z,29.6
2017-06-15T08:32:13.069Z,29.8
2017-06-15T08:37:03.333Z,30.1
2017-06-15T08:42:02.647Z,30.3
2017-06-15T08:47:17.744Z,30.5
2017-06-15T08:52:02.668Z,30.6
2017-06-15T08:57:03.197Z,30.7
2017-06-15T09:07:03.203Z,30.9
2017-06-15T09:12:03.557Z,31.2
2017-06-15T09:17:17.906Z,31.2
2017-06-15T09:22:03.439Z,31.6
2017-06-15T09:27:02.976Z,31.8
2017-06-15T09:32:13.588Z,32.1
2017-06-15T09:37:03.285Z,32.4
2017-06-15T09:42:03.556Z,32.3
2017-06-15T09:47:13.701Z,32.5
2017-06-15T09:52:03.234Z,32.4
2017-06-15T09:57:02.665Z,32.7
2017-06-15T10:02:17.711Z,32.8
2017-06-15T10:07:03.235Z,32.9
2017-06-15T10:12:02.915Z,32.9
2017-06-15T10:17:17.930Z,33.0
2017-06-15T10:22:03.310Z,33.0
2017-06-15T10:27:02.790Z,33.0
2017-06-15T10:32:13.255Z,33.1
2017-06-15T10:37:03.107Z,33.1
2017-06-15T10:42:03.505Z,33.3
2017-06-15T10:47:14.124Z,33.3
2017-06-15T10:52:03.175Z,33.4
2017-06-15T10:57:03.618Z,33.7
2017-06-15T11:02:16.986Z,33.7
2017-06-15T11:07:02.775Z,33.6
2017-06-15T11:12:03.316Z,33.6
2017-06-15T11:17:17.614Z,33.7
2017-06-15T11:22:02.862Z,33.7
2017-06-15T11:27:03.377Z,33.9
2017-06-15T11:32:16.934Z,34.2
2017-06-15T11:37:03.338Z,34.2
2017-06-15T11:42:02.861Z,34.2
2017-06-15T11:47:13.376Z,34.3
2017-06-15T11:52:03.272Z,34.3
2017-06-15T11:57:02.730Z,34.4
2017-06-15T12:02:17.601Z,34.5
2017-06-15T12:07:03.188Z,34.6
2017-06-15T12:12:02.735Z,34.8
2017-06-15T12:17:13.748Z,35.1
2017-06-15T12:22:03.287Z,35.6
2017-06-15T12:27:03.699Z,35.5
2017-06-15T12:32:13.580Z,35.5
2017-06-15T12:37:03.569Z,36.0
2017-06-15T12:42:03.524Z,36.0
2017-06-15T12:47:17.845Z,35.8
2017-06-15T12:52:03.003Z,36.0
2017-06-15T12:57:03.425Z,36.3
2017-06-15T13:02:17.027Z,37.1
2017-06-15T13:07:03.350Z,36.9
2017-06-15T13:12:02.979Z,36.8
2017-06-15T13:17:13.631Z,37.1
2017-06-15T13:22:03.225Z,37.1
2017-06-15T13:27:03.581Z,36.7
2017-06-15T13:32:13.503Z,37.1
2017-06-15T13:37:03.067Z,37.5
2017-06-15T13:42:03.431Z,37.5
2017-06-15T13:47:13.098Z,37.6
2017-06-15T13:52:03.367Z,37.6
2017-06-15T13:57:02.783Z,37.8
2017-06-15T14:02:22.986Z,38.1
2017-06-15T14:07:02.870Z,38.1
2017-06-15T14:12:03.442Z,38.5
2017-06-15T14:22:03.455Z,38.7
2017-06-15T14:27:02.733Z,39.1
2017-06-15T14:32:14.010Z,39.9
2017-06-15T14:37:03.397Z,39.9
2017-06-15T14:42:02.846Z,40.6
2017-06-15T14:47:18.031Z,42.2
2017-06-15T14:52:03.312Z,42.1
2017-06-15T14:57:02.736Z,41.7
2017-06-15T15:02:13.517Z,39.3
2017-06-15T15:07:02.966Z,38.7
2017-06-15T15:12:03.469Z,38.7
2017-06-15T15:17:13.543Z,39.4
2017-06-15T15:22:03.247Z,38.6
2017-06-15T15:27:03.100Z,37.8
2017-06-15T15:32:13.924Z,35.5
2017-06-15T15:37:02.825Z,34.5
2017-06-15T15:42:03.323Z,34.2
2017-06-15T15:47:14.309Z,34.1
2017-06-15T15:52:03.221Z,33.3
2017-06-15T15:57:03.602Z,33.0
2017-06-15T16:02:13.187Z,33.0
2017-06-15T16:07:03.400Z,32.9
2017-06-15T16:12:02.936Z,32.5
2017-06-15T16:17:13.961Z,32.4
2017-06-15T16:22:02.877Z,32.1
2017-06-15T16:27:03.337Z,31.7
2017-06-15T16:32:14.195Z,31.2
2017-06-15T16:37:03.114Z,31.2
2017-06-15T16:42:03.413Z,30.6
2017-06-15T16:47:17.437Z,30.6
2017-06-15T16:52:03.233Z,30.3
2017-06-15T16:57:02.663Z,30.2
2017-06-15T17:02:23.084Z,30.1
2017-06-15T17:07:03.600Z,30.0
2017-06-15T17:12:03.256Z,29.8
2017-06-15T17:17:13.970Z,29.5
2017-06-15T17:22:03.036Z,28.9
2017-06-15T17:27:03.480Z,28.8
2017-06-15T17:32:13.123Z,28.5
2017-06-15T17:37:03.605Z,28.4
2017-06-15T17:42:02.722Z,28.1
2017-06-15T17:47:13.409Z,28.0
2017-06-15T17:52:02.899Z,28.0
2017-06-15T17:57:02.671Z,27.6
2017-06-15T18:02:12.121Z,27.2
2017-06-15T18:07:03.495Z,27.0
2017-06-15T18:12:02.896Z,26.7
2017-06-15T18:17:13.042Z,26.6
2017-06-15T18:22:03.224Z,26.4
2017-06-15T18:27:03.554Z,25.8
2017-06-15T18:32:13.557Z,25.3
2017-06-15T18:37:03.471Z,24.8
2017-06-15T18:42:02.955Z,24.3
2017-06-15T18:47:13.902Z,24.1
2017-06-15T18:52:03.471Z,23.8
2017-06-15T18:57:03.543Z,23.5
2017-06-15T19:02:09.825Z,23.2
2017-06-15T19:07:03.104Z,23.2
2017-06-15T19:12:03.638Z,23.1
2017-06-15T19:17:09.393Z,23.1
2017-06-15T19:22:03.572Z,22.9
2017-06-15T19:27:03.088Z,22.9
2017-06-15T19:32:16.860Z,22.1
2017-06-15T19:37:03.665Z,22.1
2017-06-15T19:42:02.954Z,21.8
2017-06-15T19:47:23.461Z,21.4
2017-06-15T19:52:02.758Z,21.4
2017-06-15T19:57:03.158Z,21.4
2017-06-15T20:02:09.797Z,21.4
2017-06-15T20:07:02.875Z,21.3
2017-06-15T20:12:03.410Z,21.3
2017-06-15T20:17:07.747Z,21.3
2017-06-15T20:22:03.325Z,21.3
2017-06-15T20:27:03.777Z,21.2
2017-06-15T20:32:05.741Z,21.2
2017-06-15T20:37:03.285Z,21.2
2017-06-15T20:42:03.624Z,21.2
2017-06-15T20:47:02.967Z,21.1
2017-06-15T20:52:03.239Z,21.1
2017-06-15T20:57:03.529Z,20.9
2017-06-15T21:02:08.598Z,20.8
2017-06-15T21:07:02.939Z,20.6
2017-06-15T21:12:03.394Z,20.5
2017-06-15T21:17:03.853Z,20.5
2017-06-15T21:22:03.103Z,20.6
2017-06-15T21:27:03.405Z,20.4
2017-06-15T21:32:03.640Z,20.2
2017-06-15T21:37:03.021Z,20.2
2017-06-15T21:42:03.168Z,20.2
2017-06-15T21:47:03.548Z,20.1
2017-06-15T21:52:02.742Z,19.9
2017-06-15T21:57:03.013Z,19.9
2017-06-15T22:02:03.640Z,20.0
2017-06-15T22:07:03.044Z,19.9
2017-06-15T22:12:03.353Z,19.7
2017-06-15T22:22:03.599Z,19.6
2017-06-15T22:27:03.226Z,19.6
2017-06-15T22:32:03.375Z,19.5
2017-06-15T22:37:03.396Z,19.4
2017-06-15T22:42:03.477Z,19.5
2017-06-15T22:47:03.722Z,19.5
2017-06-15T22:52:02.797Z,19.5
2017-06-15T22:57:02.897Z,19.6
2017-06-15T23:02:03.067Z,19.7
2017-06-15T23:07:03.037Z,19.7
2017-06-15T23:12:03.466Z,19.8
2017-06-15T23:17:02.950Z,19.8
2017-06-15T23:22:02.769Z,19.9
2017-06-15T23:27:03.066Z,19.8
2017-06-15T23:32:03.305Z,19.8
2017-06-15T23:37:03.547Z,19.8
2017-06-15T23:42:02.869Z,19.8
2017-06-15T23:47:02.994Z,19.8
2017-06-15T23:52:03.256Z,19.7
2017-06-15T23:57:03.500Z,19.7
